createdAt,value
2023-05-11T00:01:09.942Z,1.73
2023-05-11T00:03:37.079Z,1.77
2023-05-11T00:06:04.428Z,1.60
2023-05-11T00:08:31.223Z,2.80
2023-05-11T00:11:00.785Z,2.05
2023-05-11T00:15:54.693Z,2.00
2023-05-11T00:18:21.687Z,2.33
2023-05-11T00:20:48.361Z,1.58
2023-05-11T00:23:15.103Z,2.03
2023-05-11T00:25:42.193Z,1.77
2023-05-11T00:28:10.309Z,1.73
2023-05-11T00:30:37.488Z,2.38
2023-05-11T00:33:04.558Z,2.03
2023-05-11T00:35:32.694Z,1.90
2023-05-11T00:37:59.604Z,1.70
2023-05-11T00:40:26.414Z,1.70
2023-05-11T00:42:53.214Z,1.95
2023-05-11T00:45:20.098Z,1.92
2023-05-11T00:47:47.498Z,1.75
2023-05-11T00:50:14.603Z,1.92
2023-05-11T00:52:42.160Z,2.20
2023-05-11T00:55:09.955Z,1.92
2023-05-11T00:57:36.646Z,1.73
2023-05-11T01:00:04.358Z,2.10
2023-05-11T01:02:31.729Z,1.70
2023-05-11T01:04:58.518Z,1.98
2023-05-11T01:07:31.570Z,2.30
2023-05-11T01:10:25.706Z,2.03
2023-05-11T01:13:01.428Z,2.55
2023-05-11T01:15:37.115Z,2.42
2023-05-11T01:18:11.287Z,3.33
2023-05-11T01:20:39.885Z,1.98
2023-05-11T01:23:18.188Z,1.88
2023-05-11T01:26:04.406Z,1.92
2023-05-11T01:29:09.079Z,1.73
2023-05-11T01:31:36.032Z,2.42
2023-05-11T01:34:04.897Z,2.25
2023-05-11T01:37:26.238Z,2.28
2023-05-11T01:39:57.092Z,1.88
2023-05-11T01:42:32.894Z,1.98
2023-05-11T01:44:59.972Z,1.75
2023-05-11T01:47:27.136Z,1.80
2023-05-11T01:49:53.959Z,2.25
2023-05-11T01:52:22.099Z,2.53
2023-05-11T01:54:49.090Z,2.85
2023-05-11T01:57:16.227Z,2.28
2023-05-11T01:59:43.413Z,2.13
2023-05-11T02:02:10.488Z,2.75
2023-05-11T02:04:37.701Z,1.63
2023-05-11T02:07:04.600Z,1.92
2023-05-11T02:09:31.957Z,2.38
2023-05-11T02:11:58.902Z,2.63
2023-05-11T02:14:25.880Z,4.78
2023-05-11T02:16:52.637Z,4.13
2023-05-11T02:19:19.378Z,2.50
2023-05-11T02:21:46.096Z,4.00
2023-05-11T02:24:12.894Z,2.05
2023-05-11T02:26:39.562Z,2.35
2023-05-11T02:29:06.568Z,2.38
2023-05-11T02:31:35.277Z,3.35
2023-05-11T02:34:06.473Z,3.63
2023-05-11T02:36:33.529Z,2.92
2023-05-11T02:39:05.898Z,2.30
2023-05-11T02:41:32.664Z,3.15
2023-05-11T02:44:04.411Z,2.40
2023-05-11T02:46:33.688Z,2.45
2023-05-11T02:49:01.319Z,2.90
2023-05-11T02:51:37.941Z,2.63
2023-05-11T02:54:07.182Z,2.33
2023-05-11T02:56:34.090Z,2.55
2023-05-11T02:59:01.335Z,2.78
2023-05-11T03:01:30.631Z,3.40
2023-05-11T03:06:25.732Z,2.25
2023-05-11T03:08:52.480Z,2.58
2023-05-11T03:11:19.376Z,2.35
2023-05-11T03:13:46.165Z,3.00
2023-05-11T03:16:13.227Z,2.33
2023-05-11T03:18:40.117Z,3.10
2023-05-11T03:21:07.117Z,2.67
2023-05-11T03:23:35.545Z,2.65
2023-05-11T03:26:02.638Z,3.65
2023-05-11T03:28:30.054Z,3.17
2023-05-11T03:30:56.787Z,3.67
2023-05-11T03:33:23.620Z,3.03
2023-05-11T03:35:51.142Z,3.30
2023-05-11T03:38:17.896Z,3.03
2023-05-11T03:40:44.585Z,3.75
2023-05-11T03:43:12.656Z,3.28
2023-05-11T03:45:39.562Z,4.28
2023-05-11T03:48:06.487Z,3.75
2023-05-11T03:50:33.404Z,3.05
2023-05-11T03:53:00.901Z,3.25
2023-05-11T03:55:27.744Z,4.18
2023-05-11T03:57:54.707Z,3.58
2023-05-11T04:00:22.151Z,3.28
2023-05-11T04:02:48.899Z,3.55
2023-05-11T04:05:15.917Z,3.25
2023-05-11T04:07:43.007Z,3.30
2023-05-11T04:10:10.307Z,3.72
2023-05-11T04:12:37.337Z,4.20
2023-05-11T04:15:04.592Z,3.45
2023-05-11T04:17:31.333Z,2.65
2023-05-11T04:19:58.156Z,3.38
2023-05-11T04:22:24.945Z,3.83
2023-05-11T04:24:51.948Z,3.60
2023-05-11T04:27:18.724Z,3.90
2023-05-11T04:29:45.551Z,3.42
2023-05-11T04:32:12.600Z,3.88
2023-05-11T04:34:39.367Z,3.80
2023-05-11T04:37:07.587Z,3.38
2023-05-11T04:39:35.076Z,3.58
2023-05-11T04:42:02.016Z,3.60
2023-05-11T04:44:28.835Z,3.85
2023-05-11T04:46:56.035Z,4.60
2023-05-11T04:49:22.898Z,3.67
2023-05-11T04:51:49.634Z,3.97
2023-05-11T04:54:16.988Z,3.72
2023-05-11T04:56:43.772Z,3.65
2023-05-11T04:59:10.708Z,3.92
2023-05-11T05:01:37.750Z,5.38
2023-05-11T05:04:04.585Z,4.22
2023-05-11T05:06:32.323Z,3.63
2023-05-11T05:08:59.064Z,4.78
2023-05-11T05:11:25.922Z,4.05
2023-05-11T05:13:53.352Z,3.45
2023-05-11T05:16:20.103Z,3.42
2023-05-11T05:18:46.942Z,3.92
2023-05-11T05:21:14.094Z,3.78
2023-05-11T05:23:40.826Z,4.72
2023-05-11T05:26:07.557Z,3.90
2023-05-11T05:28:35.872Z,5.18
2023-05-11T05:31:02.853Z,5.35
2023-05-11T05:33:29.973Z,4.35
2023-05-11T05:35:56.731Z,3.80
2023-05-11T05:38:23.443Z,4.78
2023-05-11T05:40:50.215Z,3.75
2023-05-11T05:43:17.106Z,3.70
2023-05-11T05:45:43.944Z,3.88
2023-05-11T05:48:11.074Z,5.03
2023-05-11T05:50:38.209Z,3.00
2023-05-11T05:53:04.941Z,4.05
2023-05-11T05:55:31.900Z,3.90
2023-05-11T05:57:58.992Z,3.90
2023-05-11T06:00:25.774Z,3.70
2023-05-11T06:02:52.791Z,4.03
2023-05-11T06:05:19.637Z,4.30
2023-05-11T06:07:54.363Z,5.05
2023-05-11T06:10:29.190Z,5.00
2023-05-11T06:12:55.889Z,5.22
2023-05-11T06:15:23.260Z,4.25
2023-05-11T06:17:53.635Z,4.72
2023-05-11T06:20:22.828Z,5.25
2023-05-11T06:22:50.028Z,5.10
2023-05-11T06:25:17.117Z,3.90
2023-05-11T06:27:43.817Z,3.97
2023-05-11T06:30:11.437Z,5.22
2023-05-11T06:32:38.224Z,4.03
2023-05-11T06:35:05.649Z,4.32
2023-05-11T06:37:32.420Z,3.58
2023-05-11T06:39:59.812Z,3.40
2023-05-11T06:42:26.567Z,4.07
2023-05-11T06:44:53.643Z,3.25
2023-05-11T06:47:20.371Z,3.88
2023-05-11T06:49:47.076Z,4.13
2023-05-11T06:52:13.864Z,4.18
2023-05-11T06:54:40.542Z,3.83
2023-05-11T06:57:07.733Z,4.05
2023-05-11T06:59:34.417Z,3.60
2023-05-11T07:02:01.250Z,4.40
2023-05-11T07:04:29.744Z,3.53
2023-05-11T07:06:56.638Z,4.35
2023-05-11T07:09:24.083Z,4.25
2023-05-11T07:11:52.179Z,4.57
2023-05-11T07:14:19.422Z,4.47
2023-05-11T07:16:46.509Z,4.07
2023-05-11T07:19:13.468Z,3.88
2023-05-11T07:21:40.493Z,4.88
2023-05-11T07:24:08.032Z,4.32
2023-05-11T07:26:34.859Z,4.47
2023-05-11T07:29:01.556Z,4.80
2023-05-11T07:31:30.346Z,4.68
2023-05-11T07:33:57.227Z,4.78
2023-05-11T07:36:23.934Z,3.45
2023-05-11T07:38:50.694Z,4.38
2023-05-11T07:41:19.160Z,4.20
2023-05-11T07:43:45.813Z,3.63
2023-05-11T07:46:12.582Z,3.58
2023-05-11T07:48:39.343Z,3.97
2023-05-11T07:51:07.508Z,4.15
2023-05-11T07:53:34.832Z,3.60
2023-05-11T07:56:01.731Z,4.35
2023-05-11T07:58:28.467Z,5.00
2023-05-11T08:00:56.111Z,3.70
2023-05-11T08:03:23.232Z,3.75
2023-05-11T08:05:50.054Z,4.72
2023-05-11T08:08:17.095Z,4.30
2023-05-11T08:10:44.371Z,4.28
2023-05-11T08:13:11.463Z,4.63
2023-05-11T08:15:38.264Z,4.03
2023-05-11T08:18:06.305Z,5.38
2023-05-11T08:20:33.194Z,5.03
2023-05-11T08:22:59.858Z,3.60
2023-05-11T08:25:27.329Z,4.03
2023-05-11T08:27:54.155Z,4.05
2023-05-11T08:30:21.233Z,3.65
2023-05-11T08:32:57.745Z,3.60
2023-05-11T08:35:25.849Z,4.93
2023-05-11T08:37:52.621Z,4.60
2023-05-11T08:40:20.093Z,4.03
2023-05-11T08:42:46.880Z,3.50
2023-05-11T08:45:14.223Z,4.00
2023-05-11T08:47:40.974Z,3.10
2023-05-11T08:50:08.020Z,4.05
2023-05-11T08:52:34.869Z,4.15
2023-05-11T08:55:01.647Z,3.75
2023-05-11T08:57:29.252Z,3.75
2023-05-11T08:59:55.999Z,4.00
2023-05-11T09:02:22.737Z,3.20
2023-05-11T09:04:50.091Z,4.72
2023-05-11T09:07:17.543Z,3.17
2023-05-11T09:09:45.379Z,3.60
2023-05-11T09:12:12.578Z,4.65
2023-05-11T09:14:39.431Z,3.95
2023-05-11T09:17:06.534Z,3.45
2023-05-11T09:19:33.433Z,3.67
2023-05-11T09:22:00.406Z,3.33
2023-05-11T09:24:27.559Z,3.35
2023-05-11T09:27:12.518Z,3.25
2023-05-11T09:29:39.459Z,2.35
2023-05-11T09:32:06.708Z,1.92
2023-05-11T09:34:33.878Z,2.30
2023-05-11T09:37:00.711Z,2.55
2023-05-11T09:39:36.942Z,2.95
2023-05-11T09:42:17.905Z,2.13
2023-05-11T09:44:45.642Z,2.75
2023-05-11T09:47:13.984Z,3.00
2023-05-11T09:49:44.894Z,3.30
2023-05-11T09:52:18.792Z,3.00
2023-05-11T09:54:52.482Z,3.28
2023-05-11T09:57:24.089Z,3.40
2023-05-11T09:59:51.103Z,3.50
2023-05-11T10:02:28.438Z,3.53
2023-05-11T10:05:00.116Z,2.97
2023-05-11T10:07:30.288Z,3.10
2023-05-11T10:10:01.700Z,4.20
2023-05-11T10:12:29.347Z,3.58
2023-05-11T10:15:02.285Z,3.65
2023-05-11T10:17:30.574Z,4.05
2023-05-11T10:19:58.289Z,3.45
2023-05-11T10:22:26.290Z,3.60
2023-05-11T10:24:53.759Z,3.97
2023-05-11T10:27:21.103Z,3.30
2023-05-11T10:29:48.249Z,2.97
2023-05-11T10:32:16.926Z,3.50
2023-05-11T10:34:44.349Z,3.10
2023-05-11T10:37:11.466Z,3.15
2023-05-11T10:39:41.038Z,3.05
2023-05-11T10:42:29.522Z,3.05
2023-05-11T10:45:11.845Z,3.00
2023-05-11T10:47:41.708Z,2.75
2023-05-11T10:50:42.741Z,3.40
2023-05-11T10:53:45.262Z,2.83
2023-05-11T10:56:31.073Z,2.70
2023-05-11T10:59:15.480Z,2.92
2023-05-11T11:01:43.001Z,2.42
2023-05-11T11:04:11.522Z,2.45
2023-05-11T11:06:42.564Z,2.53
2023-05-11T11:09:14.629Z,1.60
2023-05-11T11:11:47.247Z,1.48
2023-05-11T11:14:15.285Z,1.55
2023-05-11T11:16:43.562Z,1.30
2023-05-11T11:19:29.662Z,1.70
2023-05-11T11:21:57.091Z,2.00
2023-05-11T11:24:47.308Z,2.90
2023-05-11T11:27:14.573Z,2.08
2023-05-11T11:29:41.335Z,2.20
2023-05-11T11:32:23.424Z,1.88
2023-05-11T11:34:50.690Z,1.83
2023-05-11T11:37:18.250Z,1.80
2023-05-11T11:39:50.187Z,1.73
2023-05-11T11:42:39.704Z,1.85
2023-05-11T11:45:25.819Z,1.80
2023-05-11T11:48:14.918Z,1.67
2023-05-11T11:50:42.933Z,1.98
2023-05-11T11:53:14.140Z,2.10
2023-05-11T11:55:50.017Z,2.03
2023-05-11T11:58:41.857Z,1.90
2023-05-11T12:01:08.880Z,2.33
2023-05-11T12:03:36.520Z,1.73
2023-05-11T12:06:05.553Z,2.42
2023-05-11T12:08:32.511Z,1.95
2023-05-11T12:11:00.148Z,2.10
2023-05-11T12:13:27.002Z,2.50
2023-05-11T12:16:10.034Z,2.00
2023-05-11T12:18:37.134Z,2.78
2023-05-11T12:21:03.990Z,2.45
2023-05-11T12:23:30.867Z,2.10
2023-05-11T12:26:05.028Z,2.10
2023-05-11T12:28:33.008Z,1.80
2023-05-11T12:31:00.778Z,1.90
2023-05-11T12:33:27.890Z,2.10
2023-05-11T12:35:55.546Z,2.20
2023-05-11T12:38:22.324Z,2.00
2023-05-11T12:40:53.030Z,1.60
2023-05-11T12:43:20.789Z,2.13
2023-05-11T12:45:47.606Z,1.90
2023-05-11T12:48:14.647Z,1.52
2023-05-11T12:50:42.382Z,2.15
2023-05-11T12:53:19.154Z,1.48
2023-05-11T12:55:51.019Z,1.85
2023-05-11T12:58:19.388Z,2.00
2023-05-11T13:00:54.239Z,1.60
2023-05-11T13:03:24.190Z,1.65
2023-05-11T13:05:51.534Z,1.80
2023-05-11T13:08:21.433Z,1.70
2023-05-11T13:10:48.519Z,1.83
2023-05-11T13:13:29.116Z,1.80
2023-05-11T13:15:55.996Z,1.40
2023-05-11T13:18:23.230Z,1.80
2023-05-11T13:20:50.461Z,1.77
2023-05-11T13:23:17.276Z,2.13
2023-05-11T13:25:49.890Z,1.90
2023-05-11T13:28:18.123Z,1.67
2023-05-11T13:30:45.330Z,2.00
2023-05-11T13:33:12.135Z,1.90
2023-05-11T13:35:39.785Z,1.60
2023-05-11T13:38:06.928Z,1.88
2023-05-11T13:40:34.951Z,1.73
2023-05-11T13:43:01.829Z,1.48
2023-05-11T13:45:28.792Z,2.28
2023-05-11T13:47:55.839Z,1.70
2023-05-11T13:50:23.522Z,1.60
2023-05-11T13:52:51.638Z,2.10
2023-05-11T13:55:18.727Z,1.75
2023-05-11T13:57:45.821Z,2.58
2023-05-11T14:00:13.148Z,2.00
2023-05-11T14:02:40.019Z,2.10
2023-05-11T14:05:07.259Z,2.70
2023-05-11T14:07:46.389Z,2.00
2023-05-11T14:10:15.348Z,2.30
2023-05-11T14:12:42.803Z,2.20
2023-05-11T14:15:10.097Z,3.20
2023-05-11T14:17:36.967Z,2.35
2023-05-11T14:20:05.250Z,2.00
2023-05-11T14:22:32.217Z,1.90
2023-05-11T14:24:58.968Z,1.70
2023-05-11T14:27:25.796Z,1.70
2023-05-11T14:29:52.567Z,2.30
2023-05-11T14:32:19.620Z,1.70
2023-05-11T14:34:46.971Z,1.95
2023-05-11T14:37:13.836Z,1.63
2023-05-11T14:39:41.212Z,1.17
2023-05-11T14:42:08.338Z,1.80
2023-05-11T14:44:35.216Z,2.20
2023-05-11T14:47:01.988Z,2.35
2023-05-11T14:49:28.933Z,1.80
2023-05-11T14:51:56.724Z,2.33
2023-05-11T14:54:23.592Z,2.17
2023-05-11T14:56:54.018Z,1.83
2023-05-11T14:59:21.698Z,1.80
2023-05-11T15:01:49.530Z,1.40
2023-05-11T15:04:16.912Z,2.35
2023-05-11T15:06:43.953Z,1.90
2023-05-11T15:09:10.735Z,1.98
2023-05-11T15:11:37.544Z,1.67
2023-05-11T15:14:05.167Z,1.63
2023-05-11T15:16:32.104Z,1.48
2023-05-11T15:18:59.860Z,1.75
2023-05-11T15:21:27.492Z,1.83
2023-05-11T15:23:54.436Z,1.90
2023-05-11T15:26:22.326Z,1.95
2023-05-11T15:28:49.071Z,1.48
2023-05-11T15:31:15.978Z,2.20
2023-05-11T15:33:43.267Z,1.48
2023-05-11T15:36:14.262Z,1.92
2023-05-11T15:38:41.802Z,1.42
2023-05-11T15:41:08.964Z,1.92
2023-05-11T15:43:35.933Z,1.40
2023-05-11T15:46:03.906Z,1.20
2023-05-11T15:48:31.211Z,1.50
2023-05-11T15:50:59.327Z,1.85
2023-05-11T15:53:26.279Z,1.08
2023-05-11T15:55:55.492Z,1.23
2023-05-11T15:58:22.648Z,1.08
2023-05-11T16:00:49.597Z,1.23
2023-05-11T16:03:16.711Z,1.20
2023-05-11T16:05:44.688Z,0.95
2023-05-11T16:08:12.029Z,1.00
2023-05-11T16:10:39.155Z,1.45
2023-05-11T16:13:05.992Z,1.00
2023-05-11T16:15:33.026Z,0.90
2023-05-11T16:18:01.577Z,1.00
2023-05-11T16:20:30.468Z,1.40
2023-05-11T16:22:57.484Z,1.02
2023-05-11T16:25:24.319Z,1.10
2023-05-11T16:27:51.158Z,1.60
2023-05-11T16:30:23.064Z,1.00
2023-05-11T16:32:52.164Z,1.40
2023-05-11T16:35:19.143Z,0.82
2023-05-11T16:37:47.699Z,1.20
2023-05-11T16:40:14.699Z,1.40
2023-05-11T16:42:41.608Z,1.08
2023-05-11T16:45:08.933Z,0.95
2023-05-11T16:47:35.891Z,1.00
2023-05-11T16:50:02.652Z,1.23
2023-05-11T16:52:29.565Z,0.90
2023-05-11T16:54:58.968Z,1.15
2023-05-11T16:57:26.712Z,1.35
2023-05-11T16:59:53.524Z,1.10
2023-05-11T17:02:21.208Z,1.40
2023-05-11T17:04:48.085Z,2.25
2023-05-11T17:07:15.706Z,2.05
2023-05-11T17:09:42.767Z,2.80
2023-05-11T17:12:10.459Z,2.97
2023-05-11T17:14:37.282Z,2.35
2023-05-11T17:17:04.776Z,2.65
2023-05-11T17:19:31.879Z,2.80
2023-05-11T17:21:58.771Z,2.15
2023-05-11T17:24:25.704Z,2.33
2023-05-11T17:26:52.513Z,2.03
2023-05-11T17:29:19.240Z,1.88
2023-05-11T17:31:48.806Z,2.30
2023-05-11T17:34:16.141Z,1.95
2023-05-11T17:36:43.288Z,2.00
2023-05-11T17:39:11.038Z,2.50
2023-05-11T17:41:37.918Z,1.83
2023-05-11T17:44:05.455Z,2.75
2023-05-11T17:46:32.359Z,2.67
2023-05-11T17:48:59.256Z,2.75
2023-05-11T17:51:26.108Z,2.40
2023-05-11T17:53:52.897Z,2.55
2023-05-11T17:56:19.721Z,2.45
2023-05-11T17:58:47.632Z,2.45
2023-05-11T18:01:14.392Z,2.75
2023-05-11T18:03:41.479Z,2.80
2023-05-11T18:06:08.561Z,2.40
2023-05-11T18:08:36.634Z,2.65
2023-05-11T18:11:03.789Z,2.47
2023-05-11T18:13:31.566Z,2.58
2023-05-11T18:15:58.656Z,2.25
2023-05-11T18:18:25.961Z,2.55
2023-05-11T18:20:52.784Z,2.42
2023-05-11T18:23:20.449Z,2.15
2023-05-11T18:25:47.228Z,2.08
2023-05-11T18:28:13.942Z,1.70
2023-05-11T18:30:40.786Z,1.77
2023-05-11T18:33:07.566Z,2.00
2023-05-11T18:35:34.439Z,2.03
2023-05-11T18:38:03.262Z,2.20
2023-05-11T18:40:29.987Z,2.30
2023-05-11T18:42:56.727Z,2.10
2023-05-11T18:45:23.487Z,2.20
2023-05-11T18:47:51.013Z,2.33
2023-05-11T18:50:18.040Z,2.35
2023-05-11T18:52:44.925Z,2.60
2023-05-11T18:55:11.764Z,2.40
2023-05-11T18:57:39.673Z,2.80
2023-05-11T19:00:07.050Z,1.92
2023-05-11T19:02:34.040Z,2.35
2023-05-11T19:05:01.265Z,2.33
2023-05-11T19:07:28.523Z,2.35
2023-05-11T19:09:55.545Z,2.22
2023-05-11T19:12:22.473Z,2.33
2023-05-11T19:14:49.221Z,1.85
2023-05-11T19:17:15.996Z,2.33
2023-05-11T19:19:42.686Z,2.50
2023-05-11T19:22:09.506Z,2.70
2023-05-11T19:24:36.462Z,2.50
2023-05-11T19:27:07.837Z,2.38
2023-05-11T19:29:35.535Z,2.78
2023-05-11T19:32:02.795Z,2.58
2023-05-11T19:34:29.652Z,2.15
2023-05-11T19:36:56.508Z,2.53
2023-05-11T19:39:24.401Z,2.85
2023-05-11T19:41:51.449Z,2.53
2023-05-11T19:44:18.785Z,2.10
2023-05-11T19:46:47.006Z,2.47
2023-05-11T19:49:15.253Z,2.78
2023-05-11T19:51:42.559Z,2.65
2023-05-11T19:54:09.702Z,3.03
2023-05-11T19:56:36.518Z,3.20
2023-05-11T19:59:04.542Z,3.08
2023-05-11T20:01:31.566Z,2.85
2023-05-11T20:03:58.603Z,3.33
2023-05-11T20:06:26.006Z,3.80
2023-05-11T20:08:53.149Z,4.93
2023-05-11T20:11:20.445Z,7.28
2023-05-11T20:13:47.870Z,6.85
2023-05-11T20:16:14.853Z,9.02
2023-05-11T20:18:42.464Z,10.32
2023-05-11T20:21:09.835Z,9.77
2023-05-11T20:23:37.695Z,10.73
2023-05-11T20:26:04.854Z,9.05
2023-05-11T20:28:31.997Z,9.20
2023-05-11T20:30:59.074Z,8.43
2023-05-11T20:35:55.762Z,8.02
2023-05-11T20:38:23.590Z,8.60
2023-05-11T20:40:50.332Z,8.10
2023-05-11T20:43:17.054Z,8.35
2023-05-11T20:45:43.951Z,8.07
2023-05-11T20:48:11.131Z,7.68
2023-05-11T20:50:39.265Z,8.27
2023-05-11T20:53:06.161Z,8.43
2023-05-11T20:55:33.045Z,5.90
2023-05-11T20:58:00.066Z,6.82
2023-05-11T21:00:27.231Z,6.90
2023-05-11T21:02:54.152Z,6.00
2023-05-11T21:05:21.754Z,8.05
2023-05-11T21:07:49.774Z,6.07
2023-05-11T21:10:16.758Z,6.28
2023-05-11T21:12:43.642Z,6.28
2023-05-11T21:15:10.499Z,5.80
2023-05-11T21:17:37.269Z,5.07
2023-05-11T21:20:07.269Z,8.15
2023-05-11T21:22:34.862Z,5.80
2023-05-11T21:25:02.632Z,4.68
2023-05-11T21:27:29.497Z,4.60
2023-05-11T21:29:56.828Z,4.40
2023-05-11T21:32:23.990Z,5.13
2023-05-11T21:34:50.789Z,4.07
2023-05-11T21:37:20.221Z,3.95
2023-05-11T21:39:50.094Z,3.90
2023-05-11T21:42:17.299Z,3.47
2023-05-11T21:44:44.173Z,3.58
2023-05-11T21:47:10.832Z,3.15
2023-05-11T21:49:37.495Z,3.60
2023-05-11T21:52:04.652Z,3.05
2023-05-11T21:54:31.430Z,3.60
2023-05-11T21:56:58.100Z,3.80
2023-05-11T21:59:27.772Z,3.60
2023-05-11T22:01:56.631Z,3.65
2023-05-11T22:04:23.607Z,3.40
2023-05-11T22:06:50.508Z,3.17
2023-05-11T22:09:17.216Z,3.28
2023-05-11T22:11:44.252Z,5.32
2023-05-11T22:14:11.232Z,3.58
2023-05-11T22:16:37.987Z,3.78
2023-05-11T22:19:04.858Z,3.83
2023-05-11T22:21:31.595Z,3.80
2023-05-11T22:23:59.140Z,3.67
2023-05-11T22:26:26.827Z,4.20
2023-05-11T22:28:53.601Z,3.95
2023-05-11T22:31:20.369Z,3.50
2023-05-11T22:33:48.608Z,2.83
2023-05-11T22:36:15.360Z,3.50
2023-05-11T22:38:42.077Z,2.88
2023-05-11T22:41:08.810Z,3.38
2023-05-11T22:43:36.019Z,3.97
2023-05-11T22:46:04.140Z,3.72
2023-05-11T22:48:31.004Z,3.33
2023-05-11T22:50:57.746Z,3.42
2023-05-11T22:53:24.554Z,3.67
2023-05-11T22:55:51.325Z,4.50
2023-05-11T22:58:18.041Z,4.25
2023-05-11T23:00:45.925Z,4.20
2023-05-11T23:03:12.759Z,3.25
2023-05-11T23:05:39.568Z,3.05
2023-05-11T23:08:06.650Z,4.13
2023-05-11T23:10:33.427Z,3.20
2023-05-11T23:13:00.281Z,3.58
2023-05-11T23:15:26.988Z,3.75
2023-05-11T23:17:53.869Z,3.92
2023-05-11T23:20:20.916Z,4.35
2023-05-11T23:22:47.914Z,4.00
2023-05-11T23:25:14.778Z,3.35
2023-05-11T23:27:41.871Z,3.72
2023-05-11T23:30:08.900Z,4.15
2023-05-11T23:32:35.640Z,3.80
2023-05-11T23:35:02.419Z,3.78
2023-05-11T23:37:29.392Z,3.97
2023-05-11T23:39:56.128Z,4.15
2023-05-11T23:42:22.854Z,4.05
2023-05-11T23:44:49.520Z,3.42
2023-05-11T23:47:16.235Z,4.25
2023-05-11T23:49:42.948Z,4.15
2023-05-11T23:52:09.628Z,4.35
2023-05-11T23:54:36.354Z,4.75
2023-05-11T23:57:03.120Z,4.70
2023-05-11T23:59:29.801Z,3.80
